Halcyon, California
Current Conditions -  °F | °C
As of 7:56 PM on Tuesday 27 Jan 2015 (Local Time) from KSBP Reporting Station
Clear Clear  
Wind Chill: 54°   Ceiling: Unl
Heat Index: 54°   Visibility: 10mi
Dew Point: 50°   Wind: 3mph
Humidity: 86%   Direction: 90°E
Pressure: 30.21"   Gusts: NA
Location:  35.1188°N, 120.589°W
Report Text: KSBP 280356Z 09003KT 10SM CLR 12/10 A3021 RMK AO2 SLP229 T01220100
Loading
Personal Weather Stations






























Interactive Weather Map New forecast layout! Learn more

10-Day Weather Forecast

Advertisements
Track Severe Weather on mobile